sensor_id;sensor_type;location;lat;lon;timestamp;temperature;humidity
8662;DHT22;29684;47.722;9.388;2022-12-29T00:01:18;3.20;99.90
8662;DHT22;29684;47.722;9.388;2022-12-29T00:04:03;3.30;99.90
8662;DHT22;29684;47.722;9.388;2022-12-29T00:06:48;3.40;99.90
8662;DHT22;29684;47.722;9.388;2022-12-29T00:09:33;3.40;99.90
8662;DHT22;29684;47.722;9.388;2022-12-29T00:12:18;3.30;99.90
8662;DHT22;29684;47.722;9.388;2022-12-29T00:15:02;3.40;99.90
8662;DHT22;29684;47.722;9.388;2022-12-29T00:18:05;3.40;99.90
8662;DHT22;29684;47.722;9.388;2022-12-29T00:20:54;3.60;99.90
8662;DHT22;29684;47.722;9.388;2022-12-29T00:23:58;3.50;99.90
8662;DHT22;29684;47.722;9.388;2022-12-29T00:30:14;3.60;99.90
8662;DHT22;29684;47.722;9.388;2022-12-29T00:33:20;3.70;99.90
8662;DHT22;29684;47.722;9.388;2022-12-29T00:36:33;3.70;99.90
8662;DHT22;29684;47.722;9.388;2022-12-29T00:39:18;3.60;99.90
8662;DHT22;29684;47.722;9.388;2022-12-29T00:42:21;3.50;99.90
8662;DHT22;29684;47.722;9.388;2022-12-29T00:45:24;3.50;99.90
8662;DHT22;29684;47.722;9.388;2022-12-29T00:48:09;3.90;99.90
8662;DHT22;29684;47.722;9.388;2022-12-29T00:50:56;3.30;99.90
8662;DHT22;29684;47.722;9.388;2022-12-29T00:53:40;3.40;99.90
8662;DHT22;29684;47.722;9.388;2022-12-29T00:56:24;3.40;99.90
8662;DHT22;29684;47.722;9.388;2022-12-29T00:59:09;3.40;99.90
8662;DHT22;29684;47.722;9.388;2022-12-29T01:01:54;3.70;99.90
8662;DHT22;29684;47.722;9.388;2022-12-29T01:04:39;4.00;99.90
8662;DHT22;29684;47.722;9.388;2022-12-29T01:07:23;3.90;99.90
8662;DHT22;29684;47.722;9.388;2022-12-29T01:10:07;3.90;99.90
8662;DHT22;29684;47.722;9.388;2022-12-29T01:12:55;3.90;99.90
8662;DHT22;29684;47.722;9.388;2022-12-29T01:15:39;4.00;99.90
8662;DHT22;29684;47.722;9.388;2022-12-29T01:18:25;4.00;99.90
8662;DHT22;29684;47.722;9.388;2022-12-29T01:21:09;4.10;99.90
8662;DHT22;29684;47.722;9.388;2022-12-29T01:23:53;4.10;99.90
8662;DHT22;29684;47.722;9.388;2022-12-29T01:26:37;4.00;99.90
8662;DHT22;29684;47.722;9.388;2022-12-29T01:29:22;4.10;99.90
8662;DHT22;29684;47.722;9.388;2022-12-29T01:32:06;4.20;99.90
8662;DHT22;29684;47.722;9.388;2022-12-29T01:34:50;4.20;99.90
8662;DHT22;29684;47.722;9.388;2022-12-29T01:37:34;4.30;99.90
8662;DHT22;29684;47.722;9.388;2022-12-29T01:40:19;4.20;99.90
8662;DHT22;29684;47.722;9.388;2022-12-29T01:43:04;4.30;99.90
8662;DHT22;29684;47.722;9.388;2022-12-29T01:45:53;4.30;99.90
8662;DHT22;29684;47.722;9.388;2022-12-29T01:48:38;5.10;99.90
8662;DHT22;29684;47.722;9.388;2022-12-29T01:51:24;4.30;99.90
8662;DHT22;29684;47.722;9.388;2022-12-29T01:57:33;4.30;99.90
8662;DHT22;29684;47.722;9.388;2022-12-29T02:00:19;4.30;99.90
8662;DHT22;29684;47.722;9.388;2022-12-29T02:03:04;4.20;99.90
8662;DHT22;29684;47.722;9.388;2022-12-29T02:05:51;4.20;99.90
8662;DHT22;29684;47.722;9.388;2022-12-29T02:08:38;4.20;99.90
8662;DHT22;29684;47.722;9.388;2022-12-29T02:11:26;4.20;99.90
8662;DHT22;29684;47.722;9.388;2022-12-29T02:14:13;4.40;99.90
8662;DHT22;29684;47.722;9.388;2022-12-29T02:17:08;4.30;99.90
8662;DHT22;29684;47.722;9.388;2022-12-29T02:26:49;4.50;99.90
8662;DHT22;29684;47.722;9.388;2022-12-29T02:32:49;4.60;99.90
8662;DHT22;29684;47.722;9.388;2022-12-29T02:39:04;5.00;99.90
8662;DHT22;29684;47.722;9.388;2022-12-29T02:42:11;5.70;99.90
8662;DHT22;29684;47.722;9.388;2022-12-29T02:45:08;6.10;99.90
8662;DHT22;29684;47.722;9.388;2022-12-29T02:48:10;6.50;99.90
8662;DHT22;29684;47.722;9.388;2022-12-29T02:51:09;6.90;99.90
8662;DHT22;29684;47.722;9.388;2022-12-29T02:53:56;7.50;99.90
8662;DHT22;29684;47.722;9.388;2022-12-29T02:56:59;8.00;99.90
8662;DHT22;29684;47.722;9.388;2022-12-29T02:59:44;7.70;99.90
8662;DHT22;29684;47.722;9.388;2022-12-29T03:08:48;7.20;99.90
8662;DHT22;29684;47.722;9.388;2022-12-29T03:11:41;7.20;99.90
8662;DHT22;29684;47.722;9.388;2022-12-29T03:15:02;6.70;99.90
8662;DHT22;29684;47.722;9.388;2022-12-29T03:18:15;6.70;99.90
8662;DHT22;29684;47.722;9.388;2022-12-29T03:21:04;7.30;99.90
8662;DHT22;29684;47.722;9.388;2022-12-29T03:23:50;7.80;99.90
8662;DHT22;29684;47.722;9.388;2022-12-29T03:26:36;8.20;99.90
8662;DHT22;29684;47.722;9.388;2022-12-29T03:29:21;7.90;99.90
8662;DHT22;29684;47.722;9.388;2022-12-29T03:32:07;8.60;99.90
8662;DHT22;29684;47.722;9.388;2022-12-29T03:34:53;8.80;99.90
8662;DHT22;29684;47.722;9.388;2022-12-29T03:37:48;9.10;99.90
8662;DHT22;29684;47.722;9.388;2022-12-29T03:40:34;8.50;99.90
8662;DHT22;29684;47.722;9.388;2022-12-29T03:43:18;8.80;99.90
8662;DHT22;29684;47.722;9.388;2022-12-29T03:46:03;8.80;99.90
8662;DHT22;29684;47.722;9.388;2022-12-29T03:48:47;8.90;99.90
8662;DHT22;29684;47.722;9.388;2022-12-29T03:51:31;8.50;99.90
8662;DHT22;29684;47.722;9.388;2022-12-29T03:54:15;8.90;99.90
8662;DHT22;29684;47.722;9.388;2022-12-29T03:56:59;8.90;99.90
8662;DHT22;29684;47.722;9.388;2022-12-29T03:59:43;9.20;99.90
8662;DHT22;29684;47.722;9.388;2022-12-29T04:02:27;8.80;99.90
8662;DHT22;29684;47.722;9.388;2022-12-29T04:05:11;9.10;99.90
8662;DHT22;29684;47.722;9.388;2022-12-29T04:07:55;9.20;99.90
8662;DHT22;29684;47.722;9.388;2022-12-29T04:10:39;9.00;99.90
8662;DHT22;29684;47.722;9.388;2022-12-29T04:13:24;9.10;99.90
8662;DHT22;29684;47.722;9.388;2022-12-29T04:16:08;9.40;99.90
8662;DHT22;29684;47.722;9.388;2022-12-29T04:18:52;9.00;99.90
8662;DHT22;29684;47.722;9.388;2022-12-29T04:21:36;9.00;99.90
8662;DHT22;29684;47.722;9.388;2022-12-29T04:24:20;9.60;99.90
8662;DHT22;29684;47.722;9.388;2022-12-29T04:27:04;8.90;99.90
8662;DHT22;29684;47.722;9.388;2022-12-29T04:29:48;9.10;99.90
8662;DHT22;29684;47.722;9.388;2022-12-29T04:32:33;9.40;99.90
8662;DHT22;29684;47.722;9.388;2022-12-29T04:35:17;8.40;99.90
8662;DHT22;29684;47.722;9.388;2022-12-29T04:38:02;9.10;99.90
8662;DHT22;29684;47.722;9.388;2022-12-29T04:40:47;9.10;99.90
8662;DHT22;29684;47.722;9.388;2022-12-29T04:43:31;8.80;99.90
8662;DHT22;29684;47.722;9.388;2022-12-29T04:46:15;9.20;99.90
8662;DHT22;29684;47.722;9.388;2022-12-29T04:49:00;9.20;99.90
8662;DHT22;29684;47.722;9.388;2022-12-29T04:51:48;9.80;99.90
8662;DHT22;29684;47.722;9.388;2022-12-29T04:54:32;9.50;99.90
8662;DHT22;29684;47.722;9.388;2022-12-29T04:57:16;9.60;99.90
8662;DHT22;29684;47.722;9.388;2022-12-29T05:00:01;9.20;99.90
8662;DHT22;29684;47.722;9.388;2022-12-29T05:02:45;9.10;99.90
8662;DHT22;29684;47.722;9.388;2022-12-29T05:05:30;9.00;99.90
8662;DHT22;29684;47.722;9.388;2022-12-29T05:08:14;9.00;99.90
8662;DHT22;29684;47.722;9.388;2022-12-29T05:10:58;9.00;99.90
8662;DHT22;29684;47.722;9.388;2022-12-29T05:13:45;9.10;99.90
8662;DHT22;29684;47.722;9.388;2022-12-29T05:16:30;9.10;99.90
8662;DHT22;29684;47.722;9.388;2022-12-29T05:19:14;9.20;99.90
8662;DHT22;29684;47.722;9.388;2022-12-29T05:21:58;9.30;99.90
8662;DHT22;29684;47.722;9.388;2022-12-29T05:24:43;9.10;99.90
8662;DHT22;29684;47.722;9.388;2022-12-29T05:27:27;8.60;99.90
8662;DHT22;29684;47.722;9.388;2022-12-29T05:30:12;8.90;99.90
8662;DHT22;29684;47.722;9.388;2022-12-29T05:32:56;9.30;99.90
8662;DHT22;29684;47.722;9.388;2022-12-29T05:35:40;9.30;99.90
8662;DHT22;29684;47.722;9.388;2022-12-29T05:38:24;8.60;99.90
8662;DHT22;29684;47.722;9.388;2022-12-29T05:41:08;9.30;99.90
8662;DHT22;29684;47.722;9.388;2022-12-29T05:43:52;10.50;99.90
8662;DHT22;29684;47.722;9.388;2022-12-29T05:46:36;9.30;99.90
8662;DHT22;29684;47.722;9.388;2022-12-29T05:49:21;9.20;99.90
8662;DHT22;29684;47.722;9.388;2022-12-29T05:52:05;9.20;99.90
8662;DHT22;29684;47.722;9.388;2022-12-29T05:54:49;9.20;99.90
8662;DHT22;29684;47.722;9.388;2022-12-29T05:57:33;8.80;99.90
8662;DHT22;29684;47.722;9.388;2022-12-29T06:00:17;9.10;99.90
8662;DHT22;29684;47.722;9.388;2022-12-29T06:03:01;9.00;99.90
8662;DHT22;29684;47.722;9.388;2022-12-29T06:05:45;9.10;99.90
8662;DHT22;29684;47.722;9.388;2022-12-29T06:08:30;9.10;99.90
8662;DHT22;29684;47.722;9.388;2022-12-29T06:11:14;8.90;99.90
8662;DHT22;29684;47.722;9.388;2022-12-29T06:13:58;8.60;99.90
8662;DHT22;29684;47.722;9.388;2022-12-29T06:16:42;8.30;99.90
8662;DHT22;29684;47.722;9.388;2022-12-29T06:19:26;8.10;99.90
8662;DHT22;29684;47.722;9.388;2022-12-29T06:22:10;7.90;99.90
8662;DHT22;29684;47.722;9.388;2022-12-29T06:24:56;7.70;99.90
8662;DHT22;29684;47.722;9.388;2022-12-29T06:27:40;7.60;99.90
8662;DHT22;29684;47.722;9.388;2022-12-29T06:30:25;7.10;99.90
8662;DHT22;29684;47.722;9.388;2022-12-29T06:33:09;6.90;99.90
8662;DHT22;29684;47.722;9.388;2022-12-29T06:35:53;7.30;99.90
8662;DHT22;29684;47.722;9.388;2022-12-29T06:38:37;7.40;99.90
8662;DHT22;29684;47.722;9.388;2022-12-29T06:41:21;7.90;99.90
8662;DHT22;29684;47.722;9.388;2022-12-29T06:44:06;7.70;99.90
8662;DHT22;29684;47.722;9.388;2022-12-29T06:46:50;8.10;99.90
8662;DHT22;29684;47.722;9.388;2022-12-29T06:49:34;8.20;99.90
8662;DHT22;29684;47.722;9.388;2022-12-29T06:52:18;8.10;99.90
8662;DHT22;29684;47.722;9.388;2022-12-29T06:55:03;9.00;99.90
8662;DHT22;29684;47.722;9.388;2022-12-29T06:57:47;9.10;99.90
8662;DHT22;29684;47.722;9.388;2022-12-29T07:00:31;9.30;99.90
8662;DHT22;29684;47.722;9.388;2022-12-29T07:03:15;9.10;99.90
8662;DHT22;29684;47.722;9.388;2022-12-29T07:05:59;9.20;99.90
8662;DHT22;29684;47.722;9.388;2022-12-29T07:08:44;9.40;99.90
8662;DHT22;29684;47.722;9.388;2022-12-29T07:11:28;9.50;99.90
8662;DHT22;29684;47.722;9.388;2022-12-29T07:14:12;9.60;99.90
8662;DHT22;29684;47.722;9.388;2022-12-29T07:16:57;9.60;99.90
8662;DHT22;29684;47.722;9.388;2022-12-29T07:19:41;9.70;99.90
8662;DHT22;29684;47.722;9.388;2022-12-29T07:22:25;9.70;99.90
8662;DHT22;29684;47.722;9.388;2022-12-29T07:25:09;10.10;99.90
8662;DHT22;29684;47.722;9.388;2022-12-29T07:27:53;9.90;99.90
8662;DHT22;29684;47.722;9.388;2022-12-29T07:30:37;10.10;99.90
8662;DHT22;29684;47.722;9.388;2022-12-29T07:33:22;9.80;99.90
8662;DHT22;29684;47.722;9.388;2022-12-29T07:36:06;9.80;99.90
8662;DHT22;29684;47.722;9.388;2022-12-29T07:38:50;9.80;99.90
8662;DHT22;29684;47.722;9.388;2022-12-29T07:41:34;9.80;99.90
8662;DHT22;29684;47.722;9.388;2022-12-29T07:44:18;9.60;99.90
8662;DHT22;29684;47.722;9.388;2022-12-29T07:47:02;9.60;99.90
8662;DHT22;29684;47.722;9.388;2022-12-29T07:49:46;9.60;99.90
8662;DHT22;29684;47.722;9.388;2022-12-29T07:52:31;9.70;99.90
8662;DHT22;29684;47.722;9.388;2022-12-29T07:55:16;9.60;99.90
8662;DHT22;29684;47.722;9.388;2022-12-29T07:58:00;9.40;99.90
8662;DHT22;29684;47.722;9.388;2022-12-29T08:00:45;9.50;99.90
8662;DHT22;29684;47.722;9.388;2022-12-29T08:03:29;10.20;99.90
8662;DHT22;29684;47.722;9.388;2022-12-29T08:06:13;9.40;99.90
8662;DHT22;29684;47.722;9.388;2022-12-29T08:08:57;9.40;99.90
8662;DHT22;29684;47.722;9.388;2022-12-29T08:11:42;9.40;99.90
8662;DHT22;29684;47.722;9.388;2022-12-29T08:14:27;9.50;99.90
8662;DHT22;29684;47.722;9.388;2022-12-29T08:17:11;9.40;99.90
8662;DHT22;29684;47.722;9.388;2022-12-29T08:19:55;9.20;99.90
8662;DHT22;29684;47.722;9.388;2022-12-29T08:22:40;9.30;99.90
8662;DHT22;29684;47.722;9.388;2022-12-29T08:25:24;9.40;99.90
8662;DHT22;29684;47.722;9.388;2022-12-29T08:28:08;10.20;99.90
8662;DHT22;29684;47.722;9.388;2022-12-29T08:30:52;9.30;99.90
8662;DHT22;29684;47.722;9.388;2022-12-29T08:33:36;9.60;99.90
8662;DHT22;29684;47.722;9.388;2022-12-29T08:36:20;9.40;99.90
8662;DHT22;29684;47.722;9.388;2022-12-29T08:39:05;9.40;99.90
8662;DHT22;29684;47.722;9.388;2022-12-29T08:41:49;9.50;99.90
8662;DHT22;29684;47.722;9.388;2022-12-29T08:44:33;9.80;99.90
8662;DHT22;29684;47.722;9.388;2022-12-29T08:47:17;9.40;99.90
8662;DHT22;29684;47.722;9.388;2022-12-29T08:50:02;10.00;99.90
8662;DHT22;29684;47.722;9.388;2022-12-29T08:52:46;9.40;99.90
8662;DHT22;29684;47.722;9.388;2022-12-29T08:55:31;9.30;99.90
8662;DHT22;29684;47.722;9.388;2022-12-29T08:58:15;9.50;99.90
8662;DHT22;29684;47.722;9.388;2022-12-29T09:01:00;9.20;99.90
8662;DHT22;29684;47.722;9.388;2022-12-29T09:03:44;9.40;99.90
8662;DHT22;29684;47.722;9.388;2022-12-29T09:06:29;9.40;99.90
8662;DHT22;29684;47.722;9.388;2022-12-29T09:09:13;9.50;99.90
8662;DHT22;29684;47.722;9.388;2022-12-29T09:11:57;9.50;99.90
8662;DHT22;29684;47.722;9.388;2022-12-29T09:14:41;9.70;99.90
8662;DHT22;29684;47.722;9.388;2022-12-29T09:17:26;9.70;99.90
8662;DHT22;29684;47.722;9.388;2022-12-29T09:20:29;9.70;99.90
8662;DHT22;29684;47.722;9.388;2022-12-29T09:23:14;9.80;99.90
8662;DHT22;29684;47.722;9.388;2022-12-29T09:25:58;10.20;99.90
8662;DHT22;29684;47.722;9.388;2022-12-29T09:28:42;10.20;99.90
8662;DHT22;29684;47.722;9.388;2022-12-29T09:31:28;10.00;99.90
8662;DHT22;29684;47.722;9.388;2022-12-29T09:34:12;10.00;99.90
8662;DHT22;29684;47.722;9.388;2022-12-29T09:36:56;10.20;99.90
8662;DHT22;29684;47.722;9.388;2022-12-29T09:39:40;10.10;99.90
8662;DHT22;29684;47.722;9.388;2022-12-29T09:45:43;10.50;99.90
8662;DHT22;29684;47.722;9.388;2022-12-29T09:48:38;10.80;99.90
8662;DHT22;29684;47.722;9.388;2022-12-29T09:51:24;10.50;99.90
8662;DHT22;29684;47.722;9.388;2022-12-29T09:57:33;10.90;99.90
8662;DHT22;29684;47.722;9.388;2022-12-29T10:00:23;11.10;99.90
8662;DHT22;29684;47.722;9.388;2022-12-29T10:03:20;11.50;99.90
8662;DHT22;29684;47.722;9.388;2022-12-29T10:06:15;11.80;99.90
8662;DHT22;29684;47.722;9.388;2022-12-29T10:21:00;13.00;99.90
8662;DHT22;29684;47.722;9.388;2022-12-29T10:23:51;12.80;99.90
8662;DHT22;29684;47.722;9.388;2022-12-29T10:26:40;13.20;99.90
8662;DHT22;29684;47.722;9.388;2022-12-29T10:29:31;13.50;99.90
8662;DHT22;29684;47.722;9.388;2022-12-29T10:32:40;14.80;99.90
8662;DHT22;29684;47.722;9.388;2022-12-29T10:35:34;13.60;99.90
8662;DHT22;29684;47.722;9.388;2022-12-29T10:38:38;13.60;99.90
8662;DHT22;29684;47.722;9.388;2022-12-29T10:41:55;13.20;99.90
8662;DHT22;29684;47.722;9.388;2022-12-29T10:44:43;13.00;99.90
8662;DHT22;29684;47.722;9.388;2022-12-29T10:47:31;12.80;99.90
8662;DHT22;29684;47.722;9.388;2022-12-29T10:50:17;12.60;99.90
8662;DHT22;29684;47.722;9.388;2022-12-29T10:53:04;12.50;99.90
8662;DHT22;29684;47.722;9.388;2022-12-29T10:55:49;12.40;99.90
8662;DHT22;29684;47.722;9.388;2022-12-29T10:58:34;12.30;99.90
8662;DHT22;29684;47.722;9.388;2022-12-29T11:01:18;12.30;99.90
8662;DHT22;29684;47.722;9.388;2022-12-29T11:07:25;12.10;99.90
8662;DHT22;29684;47.722;9.388;2022-12-29T11:10:28;12.00;99.90
8662;DHT22;29684;47.722;9.388;2022-12-29T11:13:16;11.90;99.90
8662;DHT22;29684;47.722;9.388;2022-12-29T11:16:01;11.90;99.90
8662;DHT22;29684;47.722;9.388;2022-12-29T11:18:46;12.10;99.90
8662;DHT22;29684;47.722;9.388;2022-12-29T11:21:37;12.20;99.90
8662;DHT22;29684;47.722;9.388;2022-12-29T11:24:26;12.30;99.90
8662;DHT22;29684;47.722;9.388;2022-12-29T11:27:16;12.30;99.90
8662;DHT22;29684;47.722;9.388;2022-12-29T11:30:00;12.50;99.90
8662;DHT22;29684;47.722;9.388;2022-12-29T11:32:51;12.40;99.90
8662;DHT22;29684;47.722;9.388;2022-12-29T11:35:40;12.40;99.90
8662;DHT22;29684;47.722;9.388;2022-12-29T11:38:36;12.40;99.90
8662;DHT22;29684;47.722;9.388;2022-12-29T11:41:27;12.30;99.90
8662;DHT22;29684;47.722;9.388;2022-12-29T11:44:12;12.30;99.90
8662;DHT22;29684;47.722;9.388;2022-12-29T11:46:57;12.40;99.90
8662;DHT22;29684;47.722;9.388;2022-12-29T11:49:41;12.50;99.90
8662;DHT22;29684;47.722;9.388;2022-12-29T11:52:35;12.60;99.90
8662;DHT22;29684;47.722;9.388;2022-12-29T11:55:26;12.70;99.90
8662;DHT22;29684;47.722;9.388;2022-12-29T11:58:15;12.80;99.90
8662;DHT22;29684;47.722;9.388;2022-12-29T12:01:33;12.60;99.90
8662;DHT22;29684;47.722;9.388;2022-12-29T12:04:22;12.50;99.90
8662;DHT22;29684;47.722;9.388;2022-12-29T12:07:28;12.50;99.90
8662;DHT22;29684;47.722;9.388;2022-12-29T12:10:22;12.50;99.90
8662;DHT22;29684;47.722;9.388;2022-12-29T12:13:25;12.50;99.90
8662;DHT22;29684;47.722;9.388;2022-12-29T12:16:21;12.60;99.90
8662;DHT22;29684;47.722;9.388;2022-12-29T12:19:34;12.50;99.90
8662;DHT22;29684;47.722;9.388;2022-12-29T12:22:36;12.20;99.90
8662;DHT22;29684;47.722;9.388;2022-12-29T12:25:29;12.10;99.90
8662;DHT22;29684;47.722;9.388;2022-12-29T12:28:46;13.20;99.90
8662;DHT22;29684;47.722;9.388;2022-12-29T12:34:41;11.60;99.90
8662;DHT22;29684;47.722;9.388;2022-12-29T12:40:32;11.40;99.90
8662;DHT22;29684;47.722;9.388;2022-12-29T12:52:40;11.50;99.90
8662;DHT22;29684;47.722;9.388;2022-12-29T12:59:12;11.50;99.90
8662;DHT22;29684;47.722;9.388;2022-12-29T13:11:28;11.40;99.90
8662;DHT22;29684;47.722;9.388;2022-12-29T13:14:24;11.40;99.90
8662;DHT22;29684;47.722;9.388;2022-12-29T13:17:34;11.40;99.90
8662;DHT22;29684;47.722;9.388;2022-12-29T13:28:55;11.40;99.90
8662;DHT22;29684;47.722;9.388;2022-12-29T13:31:50;11.40;99.90
8662;DHT22;29684;47.722;9.388;2022-12-29T13:34:48;11.90;99.90
8662;DHT22;29684;47.722;9.388;2022-12-29T13:37:36;12.10;99.90
8662;DHT22;29684;47.722;9.388;2022-12-29T13:40:25;11.60;99.90
8662;DHT22;29684;47.722;9.388;2022-12-29T13:43:12;11.70;99.90
8662;DHT22;29684;47.722;9.388;2022-12-29T13:46:07;11.60;99.90
8662;DHT22;29684;47.722;9.388;2022-12-29T13:49:02;11.60;99.90
8662;DHT22;29684;47.722;9.388;2022-12-29T13:51:52;11.50;99.90
8662;DHT22;29684;47.722;9.388;2022-12-29T13:54:56;11.60;99.90
8662;DHT22;29684;47.722;9.388;2022-12-29T13:57:49;11.60;99.90
8662;DHT22;29684;47.722;9.388;2022-12-29T14:00:49;12.90;99.90
8662;DHT22;29684;47.722;9.388;2022-12-29T14:03:53;11.50;99.90
8662;DHT22;29684;47.722;9.388;2022-12-29T14:06:38;11.50;99.90
8662;DHT22;29684;47.722;9.388;2022-12-29T14:09:53;11.40;99.90
8662;DHT22;29684;47.722;9.388;2022-12-29T14:12:42;11.40;99.90
8662;DHT22;29684;47.722;9.388;2022-12-29T14:15:26;11.40;99.90
8662;DHT22;29684;47.722;9.388;2022-12-29T14:18:23;11.30;99.90
8662;DHT22;29684;47.722;9.388;2022-12-29T14:21:17;11.30;99.90
8662;DHT22;29684;47.722;9.388;2022-12-29T14:33:30;11.00;99.90
8662;DHT22;29684;47.722;9.388;2022-12-29T14:39:03;11.10;99.90
8662;DHT22;29684;47.722;9.388;2022-12-29T14:41:48;11.00;99.90
8662;DHT22;29684;47.722;9.388;2022-12-29T14:47:43;11.10;99.90
8662;DHT22;29684;47.722;9.388;2022-12-29T14:50:40;11.30;99.90
8662;DHT22;29684;47.722;9.388;2022-12-29T14:53:48;11.20;99.90
8662;DHT22;29684;47.722;9.388;2022-12-29T14:56:39;11.20;99.90
8662;DHT22;29684;47.722;9.388;2022-12-29T14:59:24;11.10;99.90
8662;DHT22;29684;47.722;9.388;2022-12-29T15:02:20;11.10;99.90
8662;DHT22;29684;47.722;9.388;2022-12-29T15:05:25;11.00;99.90
8662;DHT22;29684;47.722;9.388;2022-12-29T15:08:12;10.90;99.90
8662;DHT22;29684;47.722;9.388;2022-12-29T15:11:03;10.90;99.90
8662;DHT22;29684;47.722;9.388;2022-12-29T15:13:49;10.80;99.90
8662;DHT22;29684;47.722;9.388;2022-12-29T15:16:34;10.80;99.90
8662;DHT22;29684;47.722;9.388;2022-12-29T15:19:25;11.90;99.90
8662;DHT22;29684;47.722;9.388;2022-12-29T15:22:11;10.60;99.90
8662;DHT22;29684;47.722;9.388;2022-12-29T15:24:56;10.70;99.90
8662;DHT22;29684;47.722;9.388;2022-12-29T15:27:41;11.20;99.90
8662;DHT22;29684;47.722;9.388;2022-12-29T15:30:26;10.50;99.90
8662;DHT22;29684;47.722;9.388;2022-12-29T15:33:21;10.60;99.90
8662;DHT22;29684;47.722;9.388;2022-12-29T15:36:20;10.50;99.90
8662;DHT22;29684;47.722;9.388;2022-12-29T15:39:23;10.50;99.90
8662;DHT22;29684;47.722;9.388;2022-12-29T15:42:21;10.50;99.90
8662;DHT22;29684;47.722;9.388;2022-12-29T15:45:12;10.30;99.90
8662;DHT22;29684;47.722;9.388;2022-12-29T15:47:58;10.50;99.90
8662;DHT22;29684;47.722;9.388;2022-12-29T15:50:43;11.30;99.90
8662;DHT22;29684;47.722;9.388;2022-12-29T15:53:30;10.40;99.90
8662;DHT22;29684;47.722;9.388;2022-12-29T15:56:15;10.40;99.90
8662;DHT22;29684;47.722;9.388;2022-12-29T15:59:00;10.40;99.90
8662;DHT22;29684;47.722;9.388;2022-12-29T16:01:45;10.40;99.90
8662;DHT22;29684;47.722;9.388;2022-12-29T16:04:30;10.50;99.90
8662;DHT22;29684;47.722;9.388;2022-12-29T16:07:28;11.30;99.90
8662;DHT22;29684;47.722;9.388;2022-12-29T16:10:32;11.00;99.90
8662;DHT22;29684;47.722;9.388;2022-12-29T16:13:34;10.50;99.90
8662;DHT22;29684;47.722;9.388;2022-12-29T16:16:28;10.40;99.90
8662;DHT22;29684;47.722;9.388;2022-12-29T16:22:10;11.90;99.90
8662;DHT22;29684;47.722;9.388;2022-12-29T16:24:57;10.40;99.90
8662;DHT22;29684;47.722;9.388;2022-12-29T16:27:43;11.00;99.90
8662;DHT22;29684;47.722;9.388;2022-12-29T16:30:30;10.40;99.90
8662;DHT22;29684;47.722;9.388;2022-12-29T16:36:38;10.50;99.90
8662;DHT22;29684;47.722;9.388;2022-12-29T16:51:28;10.90;99.90
8662;DHT22;29684;47.722;9.388;2022-12-29T16:54:05;10.40;99.90
8662;DHT22;29684;47.722;9.388;2022-12-29T16:56:49;10.40;99.90
8662;DHT22;29684;47.722;9.388;2022-12-29T16:59:40;10.40;99.90
8662;DHT22;29684;47.722;9.388;2022-12-29T17:02:28;10.30;99.90
8662;DHT22;29684;47.722;9.388;2022-12-29T17:05:15;10.30;99.90
8662;DHT22;29684;47.722;9.388;2022-12-29T17:07:59;10.30;99.90
8662;DHT22;29684;47.722;9.388;2022-12-29T17:10:44;10.30;99.90
8662;DHT22;29684;47.722;9.388;2022-12-29T17:13:48;10.20;99.90
8662;DHT22;29684;47.722;9.388;2022-12-29T17:16:32;10.30;99.90
8662;DHT22;29684;47.722;9.388;2022-12-29T17:19:26;10.60;99.90
8662;DHT22;29684;47.722;9.388;2022-12-29T17:22:16;11.20;99.90
8662;DHT22;29684;47.722;9.388;2022-12-29T17:25:01;10.10;99.90
8662;DHT22;29684;47.722;9.388;2022-12-29T17:30:35;10.10;99.90
8662;DHT22;29684;47.722;9.388;2022-12-29T17:33:20;10.00;99.90
8662;DHT22;29684;47.722;9.388;2022-12-29T17:36:04;10.00;99.90
8662;DHT22;29684;47.722;9.388;2022-12-29T17:38:49;10.00;99.90
8662;DHT22;29684;47.722;9.388;2022-12-29T17:41:34;9.90;99.90
8662;DHT22;29684;47.722;9.388;2022-12-29T17:44:20;9.90;99.90
8662;DHT22;29684;47.722;9.388;2022-12-29T17:47:04;9.90;99.90
8662;DHT22;29684;47.722;9.388;2022-12-29T17:49:48;9.90;99.90
8662;DHT22;29684;47.722;9.388;2022-12-29T17:52:32;9.80;99.90
8662;DHT22;29684;47.722;9.388;2022-12-29T17:55:20;9.70;99.90
8662;DHT22;29684;47.722;9.388;2022-12-29T17:58:17;9.60;99.90
8662;DHT22;29684;47.722;9.388;2022-12-29T18:01:02;9.60;99.90
8662;DHT22;29684;47.722;9.388;2022-12-29T18:03:47;9.60;99.90
8662;DHT22;29684;47.722;9.388;2022-12-29T18:06:31;9.30;99.90
8662;DHT22;29684;47.722;9.388;2022-12-29T18:09:15;9.10;99.90
8662;DHT22;29684;47.722;9.388;2022-12-29T18:12:02;8.90;99.90
8662;DHT22;29684;47.722;9.388;2022-12-29T18:14:46;8.70;99.90
8662;DHT22;29684;47.722;9.388;2022-12-29T18:17:31;8.70;99.90
8662;DHT22;29684;47.722;9.388;2022-12-29T18:20:15;8.60;99.90
8662;DHT22;29684;47.722;9.388;2022-12-29T18:23:00;8.50;99.90
8662;DHT22;29684;47.722;9.388;2022-12-29T18:28:31;8.60;99.90
8662;DHT22;29684;47.722;9.388;2022-12-29T18:31:29;8.60;99.90
8662;DHT22;29684;47.722;9.388;2022-12-29T18:34:14;8.50;99.90
8662;DHT22;29684;47.722;9.388;2022-12-29T18:36:59;8.60;99.90
8662;DHT22;29684;47.722;9.388;2022-12-29T18:39:44;8.50;99.90
8662;DHT22;29684;47.722;9.388;2022-12-29T18:42:28;8.50;99.90
8662;DHT22;29684;47.722;9.388;2022-12-29T18:45:16;8.40;99.90
8662;DHT22;29684;47.722;9.388;2022-12-29T18:48:01;8.40;99.90
8662;DHT22;29684;47.722;9.388;2022-12-29T18:50:46;8.40;99.90
8662;DHT22;29684;47.722;9.388;2022-12-29T18:53:32;8.40;99.90
8662;DHT22;29684;47.722;9.388;2022-12-29T18:56:19;8.30;99.90
8662;DHT22;29684;47.722;9.388;2022-12-29T18:59:05;8.30;99.90
8662;DHT22;29684;47.722;9.388;2022-12-29T19:01:49;8.30;99.90
8662;DHT22;29684;47.722;9.388;2022-12-29T19:04:33;8.30;99.90
8662;DHT22;29684;47.722;9.388;2022-12-29T19:07:18;8.40;99.90
8662;DHT22;29684;47.722;9.388;2022-12-29T19:10:02;8.30;99.90
8662;DHT22;29684;47.722;9.388;2022-12-29T19:12:47;8.40;99.90
8662;DHT22;29684;47.722;9.388;2022-12-29T19:15:34;8.40;99.90
8662;DHT22;29684;47.722;9.388;2022-12-29T19:18:20;8.40;99.90
8662;DHT22;29684;47.722;9.388;2022-12-29T19:21:05;8.40;99.90
8662;DHT22;29684;47.722;9.388;2022-12-29T19:23:49;8.60;99.90
8662;DHT22;29684;47.722;9.388;2022-12-29T19:26:37;8.60;99.90
8662;DHT22;29684;47.722;9.388;2022-12-29T19:29:22;8.60;99.90
8662;DHT22;29684;47.722;9.388;2022-12-29T19:32:06;8.80;99.90
8662;DHT22;29684;47.722;9.388;2022-12-29T19:34:50;8.40;99.90
8662;DHT22;29684;47.722;9.388;2022-12-29T19:37:34;8.50;99.90
8662;DHT22;29684;47.722;9.388;2022-12-29T19:40:24;8.40;99.90
8662;DHT22;29684;47.722;9.388;2022-12-29T19:43:12;8.30;99.90
8662;DHT22;29684;47.722;9.388;2022-12-29T19:45:56;8.30;99.90
8662;DHT22;29684;47.722;9.388;2022-12-29T19:48:40;8.30;99.90
8662;DHT22;29684;47.722;9.388;2022-12-29T19:51:25;8.50;99.90
8662;DHT22;29684;47.722;9.388;2022-12-29T19:54:10;8.10;99.90
8662;DHT22;29684;47.722;9.388;2022-12-29T19:56:54;8.30;99.90
8662;DHT22;29684;47.722;9.388;2022-12-29T19:59:38;8.20;99.90
8662;DHT22;29684;47.722;9.388;2022-12-29T20:02:30;8.10;99.90
8662;DHT22;29684;47.722;9.388;2022-12-29T20:05:14;8.60;99.90
8662;DHT22;29684;47.722;9.388;2022-12-29T20:07:58;8.20;99.90
8662;DHT22;29684;47.722;9.388;2022-12-29T20:10:42;8.20;99.90
8662;DHT22;29684;47.722;9.388;2022-12-29T20:13:26;8.30;99.90